Eastham, MA (02642)

2:01 AM EDT on September 05, 2015 (GMT -0400)
Muddy Pond | | Change Station
CLOSE
Current Station
Personal Weather Station
Location: Eastham, MA
Elevation: 16 ft
Nearby Weather Stations

Elev 16 ft 41.83 °N, 69.98 °W | Updated 25 seconds ago

Clear
Clear
59.2 °F
Feels Like 59.2 °F
N
0.0
Wind Variable Wind from SE
Gusts 0.0 mph

Today
High -- | Low -- °F
--% Chance of Precip.
Yesterday
High -- | Low -- °F
Precip. -- in
6:09 AM 7:07 PM
Waning Gibbous, 52% visible
Pressure 30.24 in
Visibility 10.0 miles
Clouds Clear
Dew Point 56 °F
Humidity 88%
Rainfall 0.00 in
Snow Depth Not available.
UV 0 out of 12
Pollen 8.50 out of 12
Air Quality Not available.
Flu Activity Not available.
METAR KCQX 050552Z AUTO 05003KT 10SM CLR 16/13 A3024 RMK AO2 SLP240 T01610133 10183 20161 58003
Pressure 30.24 in
Visibility 10.0 miles
Clouds Clear
Dew Point 56 °F
Humidity 88%
Rainfall 0.00 in
Snow Depth Not available.
UV 0 out of 12
Pollen 8.50 out of 12
Air Quality Not available.
Flu Activity Not available.
METAR KCQX 050552Z AUTO 05003KT 10SM CLR 16/13 A3024 RMK AO2 SLP240 T01610133 10183 20161 58003

10-Day Weather Forecast

×

Almanac

Astronomy

Sep. 05, 2015 Rise Set
Actual Time
Civil Twilight
Nautical Twilight
Astronomical Twilight
Moon
Length of Visible Light
Length of Day
Tomorrow will be .
, % of the Moon is Illuminated

Today's Extremes

State Highs State Lows

Community

WunderPhotos

Upload Photos

1,852,431 photos uploaded!

WunderBlogs® & News

Nearby

Air Quality

  Air Quality AQ Index Pollutant
Not available.

Snow Depth

Station Depth Elevation

Earthquake Activity

City Distance Mag. Time & Date
Minimum magnitude displayed is 2.5.

Coastal Water Temperatures

Place Temperature

Stations

Nearby Weather Stations

Station Location Temp. Windchill Dew Point Humidity Wind Precip. Elev Updated Type